sensor_id;sensor_type;location;lat;lon;timestamp;P1;durP1;ratioP1;P2;durP2;ratioP2
20743;SDS011;56303;52.160;-0.428;2022-07-04T00:00:13;5.17;;;2.53;;
20743;SDS011;56303;52.160;-0.428;2022-07-04T00:02:42;4.13;;;2.43;;
20743;SDS011;56303;52.160;-0.428;2022-07-04T00:05:10;4.33;;;2.43;;
20743;SDS011;56303;52.160;-0.428;2022-07-04T00:07:38;3.77;;;2.50;;
20743;SDS011;56303;52.160;-0.428;2022-07-04T00:10:06;3.53;;;2.60;;
20743;SDS011;56303;52.160;-0.428;2022-07-04T00:12:34;3.27;;;2.00;;
20743;SDS011;56303;52.160;-0.428;2022-07-04T00:15:02;4.37;;;2.50;;
20743;SDS011;56303;52.160;-0.428;2022-07-04T00:17:31;3.87;;;2.50;;
20743;SDS011;56303;52.160;-0.428;2022-07-04T00:19:58;3.03;;;2.20;;
20743;SDS011;56303;52.160;-0.428;2022-07-04T00:22:25;4.33;;;2.20;;
20743;SDS011;56303;52.160;-0.428;2022-07-04T00:24:52;4.43;;;2.27;;
20743;SDS011;56303;52.160;-0.428;2022-07-04T00:27:18;2.87;;;2.37;;
20743;SDS011;56303;52.160;-0.428;2022-07-04T00:29:45;4.60;;;2.60;;
20743;SDS011;56303;52.160;-0.428;2022-07-04T00:32:12;5.00;;;2.47;;
20743;SDS011;56303;52.160;-0.428;2022-07-04T00:34:39;3.53;;;2.23;;
20743;SDS011;56303;52.160;-0.428;2022-07-04T00:37:06;3.80;;;2.53;;
20743;SDS011;56303;52.160;-0.428;2022-07-04T00:39:33;3.47;;;2.20;;
20743;SDS011;56303;52.160;-0.428;2022-07-04T00:42:06;3.80;;;2.10;;
20743;SDS011;56303;52.160;-0.428;2022-07-04T00:44:33;3.13;;;2.20;;
20743;SDS011;56303;52.160;-0.428;2022-07-04T00:47:04;3.63;;;2.10;;
20743;SDS011;56303;52.160;-0.428;2022-07-04T00:49:32;4.60;;;2.40;;
20743;SDS011;56303;52.160;-0.428;2022-07-04T00:51:59;4.07;;;2.30;;
20743;SDS011;56303;52.160;-0.428;2022-07-04T00:54:28;3.73;;;2.80;;
20743;SDS011;56303;52.160;-0.428;2022-07-04T00:56:56;4.87;;;2.30;;
20743;SDS011;56303;52.160;-0.428;2022-07-04T00:59:25;3.77;;;2.10;;
20743;SDS011;56303;52.160;-0.428;2022-07-04T01:01:52;2.53;;;2.20;;
20743;SDS011;56303;52.160;-0.428;2022-07-04T01:04:19;2.60;;;2.10;;
20743;SDS011;56303;52.160;-0.428;2022-07-04T01:06:46;2.50;;;2.30;;
20743;SDS011;56303;52.160;-0.428;2022-07-04T01:09:13;4.43;;;2.40;;
20743;SDS011;56303;52.160;-0.428;2022-07-04T01:11:40;3.87;;;2.50;;
20743;SDS011;56303;52.160;-0.428;2022-07-04T01:14:07;3.77;;;2.30;;
20743;SDS011;56303;52.160;-0.428;2022-07-04T01:16:33;2.87;;;2.30;;
20743;SDS011;56303;52.160;-0.428;2022-07-04T01:19:01;2.43;;;2.20;;
20743;SDS011;56303;52.160;-0.428;2022-07-04T01:21:29;2.67;;;2.23;;
20743;SDS011;56303;52.160;-0.428;2022-07-04T01:23:58;4.20;;;2.27;;
20743;SDS011;56303;52.160;-0.428;2022-07-04T01:26:24;4.00;;;2.47;;
20743;SDS011;56303;52.160;-0.428;2022-07-04T01:28:53;3.40;;;2.40;;
20743;SDS011;56303;52.160;-0.428;2022-07-04T01:31:20;2.90;;;2.10;;
20743;SDS011;56303;52.160;-0.428;2022-07-04T01:33:47;2.33;;;1.97;;
20743;SDS011;56303;52.160;-0.428;2022-07-04T01:36:14;2.43;;;1.70;;
20743;SDS011;56303;52.160;-0.428;2022-07-04T01:38:41;2.87;;;2.20;;
20743;SDS011;56303;52.160;-0.428;2022-07-04T01:41:07;2.70;;;2.30;;
20743;SDS011;56303;52.160;-0.428;2022-07-04T01:43:34;2.80;;;2.40;;
20743;SDS011;56303;52.160;-0.428;2022-07-04T01:46:01;4.10;;;2.40;;
20743;SDS011;56303;52.160;-0.428;2022-07-04T01:48:29;2.63;;;2.40;;
20743;SDS011;56303;52.160;-0.428;2022-07-04T01:50:55;4.00;;;2.70;;
20743;SDS011;56303;52.160;-0.428;2022-07-04T01:53:22;3.70;;;2.83;;
20743;SDS011;56303;52.160;-0.428;2022-07-04T01:55:49;3.63;;;2.53;;
20743;SDS011;56303;52.160;-0.428;2022-07-04T01:58:16;4.00;;;2.57;;
20743;SDS011;56303;52.160;-0.428;2022-07-04T02:00:43;5.70;;;2.70;;
20743;SDS011;56303;52.160;-0.428;2022-07-04T02:03:28;6.17;;;2.37;;
20743;SDS011;56303;52.160;-0.428;2022-07-04T02:05:55;4.17;;;2.37;;
20743;SDS011;56303;52.160;-0.428;2022-07-04T02:08:22;3.93;;;2.40;;
20743;SDS011;56303;52.160;-0.428;2022-07-04T02:10:49;3.53;;;2.47;;
20743;SDS011;56303;52.160;-0.428;2022-07-04T02:13:16;2.63;;;2.40;;
20743;SDS011;56303;52.160;-0.428;2022-07-04T02:15:42;4.27;;;2.93;;
20743;SDS011;56303;52.160;-0.428;2022-07-04T02:18:10;3.00;;;2.53;;
20743;SDS011;56303;52.160;-0.428;2022-07-04T02:20:37;3.47;;;2.30;;
20743;SDS011;56303;52.160;-0.428;2022-07-04T02:23:05;3.47;;;2.37;;
20743;SDS011;56303;52.160;-0.428;2022-07-04T02:25:32;5.20;;;2.50;;
20743;SDS011;56303;52.160;-0.428;2022-07-04T02:27:59;4.33;;;2.57;;
20743;SDS011;56303;52.160;-0.428;2022-07-04T02:30:26;5.87;;;3.03;;
20743;SDS011;56303;52.160;-0.428;2022-07-04T02:32:53;4.67;;;3.47;;
20743;SDS011;56303;52.160;-0.428;2022-07-04T02:35:19;4.13;;;3.13;;
20743;SDS011;56303;52.160;-0.428;2022-07-04T02:37:46;3.90;;;2.87;;
20743;SDS011;56303;52.160;-0.428;2022-07-04T02:40:13;3.87;;;3.17;;
20743;SDS011;56303;52.160;-0.428;2022-07-04T02:42:40;3.00;;;2.70;;
20743;SDS011;56303;52.160;-0.428;2022-07-04T02:45:07;3.53;;;2.40;;
20743;SDS011;56303;52.160;-0.428;2022-07-04T02:47:34;3.60;;;2.60;;
20743;SDS011;56303;52.160;-0.428;2022-07-04T02:50:02;4.40;;;2.53;;
20743;SDS011;56303;52.160;-0.428;2022-07-04T02:52:29;2.77;;;2.37;;
20743;SDS011;56303;52.160;-0.428;2022-07-04T02:54:56;3.27;;;2.30;;
20743;SDS011;56303;52.160;-0.428;2022-07-04T02:57:24;4.50;;;2.50;;
20743;SDS011;56303;52.160;-0.428;2022-07-04T02:59:51;3.53;;;2.80;;
20743;SDS011;56303;52.160;-0.428;2022-07-04T03:02:17;2.43;;;2.23;;
20743;SDS011;56303;52.160;-0.428;2022-07-04T03:04:45;4.03;;;2.40;;
20743;SDS011;56303;52.160;-0.428;2022-07-04T03:07:12;3.00;;;2.20;;
20743;SDS011;56303;52.160;-0.428;2022-07-04T03:09:39;3.27;;;2.20;;
20743;SDS011;56303;52.160;-0.428;2022-07-04T03:12:06;2.57;;;2.20;;
20743;SDS011;56303;52.160;-0.428;2022-07-04T03:14:33;4.40;;;2.57;;
20743;SDS011;56303;52.160;-0.428;2022-07-04T03:17:00;3.83;;;2.53;;
20743;SDS011;56303;52.160;-0.428;2022-07-04T03:19:27;3.97;;;2.70;;
20743;SDS011;56303;52.160;-0.428;2022-07-04T03:21:54;3.63;;;2.83;;
20743;SDS011;56303;52.160;-0.428;2022-07-04T03:24:21;5.30;;;2.80;;
20743;SDS011;56303;52.160;-0.428;2022-07-04T03:26:48;3.67;;;2.60;;
20743;SDS011;56303;52.160;-0.428;2022-07-04T03:29:15;3.20;;;2.90;;
20743;SDS011;56303;52.160;-0.428;2022-07-04T03:31:41;5.53;;;3.23;;
20743;SDS011;56303;52.160;-0.428;2022-07-04T03:34:08;4.67;;;3.00;;
20743;SDS011;56303;52.160;-0.428;2022-07-04T03:36:35;3.90;;;3.07;;
20743;SDS011;56303;52.160;-0.428;2022-07-04T03:39:02;3.17;;;2.63;;
20743;SDS011;56303;52.160;-0.428;2022-07-04T03:41:29;3.93;;;2.63;;
20743;SDS011;56303;52.160;-0.428;2022-07-04T03:43:56;3.30;;;2.73;;
20743;SDS011;56303;52.160;-0.428;2022-07-04T03:46:23;4.60;;;3.10;;
20743;SDS011;56303;52.160;-0.428;2022-07-04T03:48:50;3.33;;;3.00;;
20743;SDS011;56303;52.160;-0.428;2022-07-04T03:51:16;3.97;;;2.70;;
20743;SDS011;56303;52.160;-0.428;2022-07-04T03:53:44;4.80;;;3.30;;
20743;SDS011;56303;52.160;-0.428;2022-07-04T03:56:11;4.90;;;3.37;;
20743;SDS011;56303;52.160;-0.428;2022-07-04T03:58:38;5.00;;;3.00;;
20743;SDS011;56303;52.160;-0.428;2022-07-04T04:01:05;4.27;;;2.63;;
20743;SDS011;56303;52.160;-0.428;2022-07-04T04:03:32;4.53;;;3.13;;
20743;SDS011;56303;52.160;-0.428;2022-07-04T04:06:17;6.43;;;3.03;;
20743;SDS011;56303;52.160;-0.428;2022-07-04T04:08:44;8.37;;;2.80;;
20743;SDS011;56303;52.160;-0.428;2022-07-04T04:11:10;5.00;;;3.43;;
20743;SDS011;56303;52.160;-0.428;2022-07-04T04:13:37;4.33;;;2.67;;
20743;SDS011;56303;52.160;-0.428;2022-07-04T04:16:04;4.13;;;2.83;;
20743;SDS011;56303;52.160;-0.428;2022-07-04T04:18:31;3.93;;;2.80;;
20743;SDS011;56303;52.160;-0.428;2022-07-04T04:20:58;3.33;;;2.60;;
20743;SDS011;56303;52.160;-0.428;2022-07-04T04:23:25;4.27;;;2.90;;
20743;SDS011;56303;52.160;-0.428;2022-07-04T04:25:51;4.90;;;2.87;;
20743;SDS011;56303;52.160;-0.428;2022-07-04T04:28:21;6.30;;;3.10;;
20743;SDS011;56303;52.160;-0.428;2022-07-04T04:30:49;4.17;;;2.80;;
20743;SDS011;56303;52.160;-0.428;2022-07-04T04:33:17;4.13;;;3.00;;
20743;SDS011;56303;52.160;-0.428;2022-07-04T04:35:43;4.33;;;2.80;;
20743;SDS011;56303;52.160;-0.428;2022-07-04T04:38:10;4.23;;;3.07;;
20743;SDS011;56303;52.160;-0.428;2022-07-04T04:40:37;5.43;;;3.23;;
20743;SDS011;56303;52.160;-0.428;2022-07-04T04:43:04;4.20;;;3.00;;
20743;SDS011;56303;52.160;-0.428;2022-07-04T04:45:31;3.93;;;2.57;;
20743;SDS011;56303;52.160;-0.428;2022-07-04T04:47:58;5.40;;;2.80;;
20743;SDS011;56303;52.160;-0.428;2022-07-04T04:50:24;4.77;;;2.90;;
20743;SDS011;56303;52.160;-0.428;2022-07-04T04:52:51;4.97;;;2.67;;
20743;SDS011;56303;52.160;-0.428;2022-07-04T04:55:18;3.43;;;2.50;;
20743;SDS011;56303;52.160;-0.428;2022-07-04T04:57:45;3.37;;;2.37;;
20743;SDS011;56303;52.160;-0.428;2022-07-04T05:00:12;3.43;;;2.27;;
20743;SDS011;56303;52.160;-0.428;2022-07-04T05:02:39;5.50;;;2.90;;
20743;SDS011;56303;52.160;-0.428;2022-07-04T05:05:06;5.77;;;2.60;;
20743;SDS011;56303;52.160;-0.428;2022-07-04T05:07:33;5.47;;;2.83;;
20743;SDS011;56303;52.160;-0.428;2022-07-04T05:10:01;3.10;;;2.37;;
20743;SDS011;56303;52.160;-0.428;2022-07-04T05:12:28;6.07;;;3.23;;
20743;SDS011;56303;52.160;-0.428;2022-07-04T05:14:55;2.83;;;2.20;;
20743;SDS011;56303;52.160;-0.428;2022-07-04T05:17:22;2.43;;;2.13;;
20743;SDS011;56303;52.160;-0.428;2022-07-04T05:19:49;3.00;;;2.37;;
20743;SDS011;56303;52.160;-0.428;2022-07-04T05:22:16;4.00;;;2.47;;
20743;SDS011;56303;52.160;-0.428;2022-07-04T05:24:44;4.43;;;2.27;;
20743;SDS011;56303;52.160;-0.428;2022-07-04T05:27:11;4.57;;;2.30;;
20743;SDS011;56303;52.160;-0.428;2022-07-04T05:29:38;4.07;;;2.23;;
20743;SDS011;56303;52.160;-0.428;2022-07-04T05:32:05;4.70;;;2.20;;
20743;SDS011;56303;52.160;-0.428;2022-07-04T05:34:33;2.87;;;1.80;;
20743;SDS011;56303;52.160;-0.428;2022-07-04T05:37:00;2.63;;;2.13;;
20743;SDS011;56303;52.160;-0.428;2022-07-04T05:39:27;3.13;;;2.20;;
20743;SDS011;56303;52.160;-0.428;2022-07-04T05:41:54;3.43;;;2.50;;
20743;SDS011;56303;52.160;-0.428;2022-07-04T05:44:21;3.03;;;2.30;;
20743;SDS011;56303;52.160;-0.428;2022-07-04T05:46:49;3.60;;;2.07;;
20743;SDS011;56303;52.160;-0.428;2022-07-04T05:49:16;2.77;;;2.00;;
20743;SDS011;56303;52.160;-0.428;2022-07-04T05:51:43;4.10;;;2.40;;
20743;SDS011;56303;52.160;-0.428;2022-07-04T05:54:10;6.03;;;2.27;;
20743;SDS011;56303;52.160;-0.428;2022-07-04T05:56:37;3.50;;;2.10;;
20743;SDS011;56303;52.160;-0.428;2022-07-04T05:59:05;2.10;;;1.90;;
20743;SDS011;56303;52.160;-0.428;2022-07-04T06:01:32;2.97;;;1.87;;
20743;SDS011;56303;52.160;-0.428;2022-07-04T06:03:59;2.77;;;1.90;;
20743;SDS011;56303;52.160;-0.428;2022-07-04T06:06:26;1.70;;;1.60;;
20743;SDS011;56303;52.160;-0.428;2022-07-04T06:08:53;2.40;;;1.50;;
20743;SDS011;56303;52.160;-0.428;2022-07-04T06:11:20;2.87;;;1.57;;
20743;SDS011;56303;52.160;-0.428;2022-07-04T06:13:48;3.80;;;1.90;;
20743;SDS011;56303;52.160;-0.428;2022-07-04T06:16:16;2.63;;;1.73;;
20743;SDS011;56303;52.160;-0.428;2022-07-04T06:18:43;2.60;;;1.90;;
20743;SDS011;56303;52.160;-0.428;2022-07-04T06:21:10;3.27;;;1.87;;
20743;SDS011;56303;52.160;-0.428;2022-07-04T06:23:37;3.10;;;1.80;;
20743;SDS011;56303;52.160;-0.428;2022-07-04T06:26:04;3.77;;;1.73;;
20743;SDS011;56303;52.160;-0.428;2022-07-04T06:28:31;3.70;;;2.07;;
20743;SDS011;56303;52.160;-0.428;2022-07-04T06:31:14;3.93;;;2.10;;
20743;SDS011;56303;52.160;-0.428;2022-07-04T06:33:42;6.80;;;1.77;;
20743;SDS011;56303;52.160;-0.428;2022-07-04T06:36:28;3.30;;;1.87;;
20743;SDS011;56303;52.160;-0.428;2022-07-04T06:38:55;3.53;;;1.90;;
20743;SDS011;56303;52.160;-0.428;2022-07-04T06:41:22;4.20;;;1.87;;
20743;SDS011;56303;52.160;-0.428;2022-07-04T06:43:49;3.13;;;2.17;;
20743;SDS011;56303;52.160;-0.428;2022-07-04T06:46:16;4.07;;;1.60;;
20743;SDS011;56303;52.160;-0.428;2022-07-04T06:48:43;2.83;;;1.67;;
20743;SDS011;56303;52.160;-0.428;2022-07-04T06:51:10;2.73;;;1.50;;
20743;SDS011;56303;52.160;-0.428;2022-07-04T06:53:37;3.73;;;1.60;;
20743;SDS011;56303;52.160;-0.428;2022-07-04T06:56:04;2.80;;;1.73;;
20743;SDS011;56303;52.160;-0.428;2022-07-04T06:58:31;4.40;;;1.80;;
20743;SDS011;56303;52.160;-0.428;2022-07-04T07:00:58;1.50;;;1.40;;
20743;SDS011;56303;52.160;-0.428;2022-07-04T07:03:25;2.23;;;1.40;;
20743;SDS011;56303;52.160;-0.428;2022-07-04T07:05:53;4.30;;;1.70;;
20743;SDS011;56303;52.160;-0.428;2022-07-04T07:08:26;5.83;;;1.73;;
20743;SDS011;56303;52.160;-0.428;2022-07-04T07:10:54;5.50;;;1.77;;
20743;SDS011;56303;52.160;-0.428;2022-07-04T07:13:22;2.13;;;1.57;;
20743;SDS011;56303;52.160;-0.428;2022-07-04T07:15:49;2.27;;;1.30;;
20743;SDS011;56303;52.160;-0.428;2022-07-04T07:18:16;3.40;;;1.47;;
20743;SDS011;56303;52.160;-0.428;2022-07-04T07:20:43;3.37;;;1.40;;
20743;SDS011;56303;52.160;-0.428;2022-07-04T07:23:10;2.83;;;1.33;;
20743;SDS011;56303;52.160;-0.428;2022-07-04T07:25:37;3.30;;;1.63;;
20743;SDS011;56303;52.160;-0.428;2022-07-04T07:28:04;3.80;;;1.90;;
20743;SDS011;56303;52.160;-0.428;2022-07-04T07:30:31;2.13;;;1.20;;
20743;SDS011;56303;52.160;-0.428;2022-07-04T07:32:57;4.77;;;1.70;;
20743;SDS011;56303;52.160;-0.428;2022-07-04T07:35:24;1.43;;;1.30;;
20743;SDS011;56303;52.160;-0.428;2022-07-04T07:37:51;4.20;;;1.83;;
20743;SDS011;56303;52.160;-0.428;2022-07-04T07:40:18;3.97;;;1.90;;
20743;SDS011;56303;52.160;-0.428;2022-07-04T07:42:45;2.97;;;1.70;;
20743;SDS011;56303;52.160;-0.428;2022-07-04T07:45:12;3.77;;;1.53;;
20743;SDS011;56303;52.160;-0.428;2022-07-04T07:47:39;4.93;;;1.80;;
20743;SDS011;56303;52.160;-0.428;2022-07-04T07:50:06;2.37;;;1.47;;
20743;SDS011;56303;52.160;-0.428;2022-07-04T07:52:33;4.93;;;1.97;;
20743;SDS011;56303;52.160;-0.428;2022-07-04T07:54:59;2.17;;;1.60;;
20743;SDS011;56303;52.160;-0.428;2022-07-04T07:57:27;3.03;;;1.57;;
20743;SDS011;56303;52.160;-0.428;2022-07-04T07:59:55;3.03;;;1.60;;
20743;SDS011;56303;52.160;-0.428;2022-07-04T08:02:22;5.97;;;1.67;;
20743;SDS011;56303;52.160;-0.428;2022-07-04T08:05:12;2.73;;;1.43;;
20743;SDS011;56303;52.160;-0.428;2022-07-04T08:07:40;1.83;;;1.40;;
20743;SDS011;56303;52.160;-0.428;2022-07-04T08:10:07;4.93;;;1.70;;
20743;SDS011;56303;52.160;-0.428;2022-07-04T08:12:35;3.03;;;1.60;;
20743;SDS011;56303;52.160;-0.428;2022-07-04T08:15:02;3.27;;;1.63;;
20743;SDS011;56303;52.160;-0.428;2022-07-04T08:17:33;1.67;;;1.30;;
20743;SDS011;56303;52.160;-0.428;2022-07-04T08:20:01;4.53;;;1.90;;
20743;SDS011;56303;52.160;-0.428;2022-07-04T08:22:31;2.13;;;1.40;;
20743;SDS011;56303;52.160;-0.428;2022-07-04T08:24:59;2.33;;;1.30;;
20743;SDS011;56303;52.160;-0.428;2022-07-04T08:27:26;2.43;;;1.30;;
20743;SDS011;56303;52.160;-0.428;2022-07-04T08:29:58;3.70;;;1.23;;
20743;SDS011;56303;52.160;-0.428;2022-07-04T08:32:26;2.33;;;1.57;;
20743;SDS011;56303;52.160;-0.428;2022-07-04T08:34:53;2.57;;;1.43;;
20743;SDS011;56303;52.160;-0.428;2022-07-04T08:37:21;2.20;;;1.30;;
20743;SDS011;56303;52.160;-0.428;2022-07-04T08:39:49;3.23;;;1.37;;
20743;SDS011;56303;52.160;-0.428;2022-07-04T08:42:17;3.03;;;1.40;;
20743;SDS011;56303;52.160;-0.428;2022-07-04T08:44:55;2.63;;;1.43;;
20743;SDS011;56303;52.160;-0.428;2022-07-04T08:47:23;2.73;;;1.60;;
20743;SDS011;56303;52.160;-0.428;2022-07-04T08:49:54;2.80;;;1.50;;
20743;SDS011;56303;52.160;-0.428;2022-07-04T08:52:41;3.57;;;1.80;;
20743;SDS011;56303;52.160;-0.428;2022-07-04T08:55:13;3.80;;;1.57;;
20743;SDS011;56303;52.160;-0.428;2022-07-04T08:57:58;2.60;;;1.50;;
20743;SDS011;56303;52.160;-0.428;2022-07-04T09:00:44;2.57;;;1.20;;
20743;SDS011;56303;52.160;-0.428;2022-07-04T09:03:11;3.40;;;1.17;;
20743;SDS011;56303;52.160;-0.428;2022-07-04T09:05:38;2.10;;;1.40;;
20743;SDS011;56303;52.160;-0.428;2022-07-04T09:08:05;3.73;;;2.37;;
20743;SDS011;56303;52.160;-0.428;2022-07-04T09:10:32;4.00;;;1.77;;
20743;SDS011;56303;52.160;-0.428;2022-07-04T09:13:00;2.67;;;1.60;;
20743;SDS011;56303;52.160;-0.428;2022-07-04T09:15:37;3.50;;;1.57;;
20743;SDS011;56303;52.160;-0.428;2022-07-04T09:18:05;2.63;;;1.40;;
20743;SDS011;56303;52.160;-0.428;2022-07-04T09:20:32;1.43;;;1.33;;
20743;SDS011;56303;52.160;-0.428;2022-07-04T09:22:59;1.80;;;1.63;;
20743;SDS011;56303;52.160;-0.428;2022-07-04T09:25:26;2.87;;;1.60;;
20743;SDS011;56303;52.160;-0.428;2022-07-04T09:27:55;4.20;;;1.80;;
20743;SDS011;56303;52.160;-0.428;2022-07-04T09:30:25;3.07;;;2.10;;
20743;SDS011;56303;52.160;-0.428;2022-07-04T09:32:54;6.40;;;2.00;;
20743;SDS011;56303;52.160;-0.428;2022-07-04T09:35:30;1.80;;;1.30;;
20743;SDS011;56303;52.160;-0.428;2022-07-04T09:38:00;3.90;;;1.60;;
20743;SDS011;56303;52.160;-0.428;2022-07-04T09:40:30;3.37;;;1.97;;
20743;SDS011;56303;52.160;-0.428;2022-07-04T09:43:20;3.73;;;1.70;;
20743;SDS011;56303;52.160;-0.428;2022-07-04T09:45:57;1.70;;;1.60;;
20743;SDS011;56303;52.160;-0.428;2022-07-04T09:48:27;2.63;;;1.40;;
20743;SDS011;56303;52.160;-0.428;2022-07-04T09:51:14;4.17;;;1.47;;
20743;SDS011;56303;52.160;-0.428;2022-07-04T09:53:42;2.43;;;1.50;;
20743;SDS011;56303;52.160;-0.428;2022-07-04T09:56:09;1.53;;;1.10;;
20743;SDS011;56303;52.160;-0.428;2022-07-04T09:58:36;1.33;;;1.23;;
20743;SDS011;56303;52.160;-0.428;2022-07-04T10:01:03;3.07;;;1.40;;
20743;SDS011;56303;52.160;-0.428;2022-07-04T10:03:30;2.10;;;1.80;;
20743;SDS011;56303;52.160;-0.428;2022-07-04T10:06:04;2.00;;;1.30;;
20743;SDS011;56303;52.160;-0.428;2022-07-04T10:08:33;2.27;;;1.27;;
20743;SDS011;56303;52.160;-0.428;2022-07-04T10:11:00;3.03;;;1.60;;
20743;SDS011;56303;52.160;-0.428;2022-07-04T10:13:34;2.80;;;1.50;;
20743;SDS011;56303;52.160;-0.428;2022-07-04T10:16:01;4.07;;;1.70;;
20743;SDS011;56303;52.160;-0.428;2022-07-04T10:18:28;1.60;;;1.40;;
20743;SDS011;56303;52.160;-0.428;2022-07-04T10:20:55;2.47;;;1.67;;
20743;SDS011;56303;52.160;-0.428;2022-07-04T10:23:24;3.73;;;1.93;;
20743;SDS011;56303;52.160;-0.428;2022-07-04T10:25:57;1.80;;;1.33;;
20743;SDS011;56303;52.160;-0.428;2022-07-04T10:28:25;3.00;;;1.30;;
20743;SDS011;56303;52.160;-0.428;2022-07-04T10:30:53;2.63;;;1.70;;
20743;SDS011;56303;52.160;-0.428;2022-07-04T10:33:23;1.43;;;1.10;;
20743;SDS011;56303;52.160;-0.428;2022-07-04T10:35:56;1.60;;;1.40;;
20743;SDS011;56303;52.160;-0.428;2022-07-04T10:40:57;3.00;;;1.23;;
20743;SDS011;56303;52.160;-0.428;2022-07-04T10:48:51;2.13;;;1.30;;
20743;SDS011;56303;52.160;-0.428;2022-07-04T10:51:31;1.97;;;1.27;;
20743;SDS011;56303;52.160;-0.428;2022-07-04T10:54:13;1.83;;;1.40;;
20743;SDS011;56303;52.160;-0.428;2022-07-04T11:02:26;2.63;;;1.60;;
20743;SDS011;56303;52.160;-0.428;2022-07-04T11:18:03;1.93;;;1.33;;
20743;SDS011;56303;52.160;-0.428;2022-07-04T11:20:34;2.07;;;1.37;;
20743;SDS011;56303;52.160;-0.428;2022-07-04T11:23:05;3.37;;;1.60;;
20743;SDS011;56303;52.160;-0.428;2022-07-04T11:25:35;1.93;;;1.60;;
20743;SDS011;56303;52.160;-0.428;2022-07-04T11:31:05;4.37;;;1.80;;
20743;SDS011;56303;52.160;-0.428;2022-07-04T11:33:33;1.87;;;1.50;;
20743;SDS011;56303;52.160;-0.428;2022-07-04T11:36:21;1.97;;;1.67;;
20743;SDS011;56303;52.160;-0.428;2022-07-04T11:38:58;1.73;;;1.40;;
20743;SDS011;56303;52.160;-0.428;2022-07-04T11:41:27;1.27;;;1.17;;
20743;SDS011;56303;52.160;-0.428;2022-07-04T11:44:17;2.10;;;1.43;;
20743;SDS011;56303;52.160;-0.428;2022-07-04T11:47:11;3.57;;;1.53;;
20743;SDS011;56303;52.160;-0.428;2022-07-04T11:49:46;2.87;;;1.40;;
20743;SDS011;56303;52.160;-0.428;2022-07-04T11:55:24;2.37;;;1.23;;
20743;SDS011;56303;52.160;-0.428;2022-07-04T11:57:51;1.53;;;1.20;;
20743;SDS011;56303;52.160;-0.428;2022-07-04T12:00:24;4.27;;;1.97;;
20743;SDS011;56303;52.160;-0.428;2022-07-04T12:02:52;1.40;;;1.30;;
20743;SDS011;56303;52.160;-0.428;2022-07-04T12:05:24;1.50;;;1.33;;
20743;SDS011;56303;52.160;-0.428;2022-07-04T12:07:51;3.00;;;1.63;;
20743;SDS011;56303;52.160;-0.428;2022-07-04T12:10:38;2.27;;;1.73;;
20743;SDS011;56303;52.160;-0.428;2022-07-04T12:13:06;4.67;;;1.83;;
20743;SDS011;56303;52.160;-0.428;2022-07-04T12:15:38;1.93;;;1.73;;
20743;SDS011;56303;52.160;-0.428;2022-07-04T12:18:20;2.63;;;1.60;;
20743;SDS011;56303;52.160;-0.428;2022-07-04T12:20:48;2.17;;;1.50;;
20743;SDS011;56303;52.160;-0.428;2022-07-04T12:23:18;4.20;;;1.53;;
20743;SDS011;56303;52.160;-0.428;2022-07-04T12:25:48;2.17;;;1.53;;
20743;SDS011;56303;52.160;-0.428;2022-07-04T12:28:17;1.93;;;1.40;;
20743;SDS011;56303;52.160;-0.428;2022-07-04T12:30:57;2.90;;;1.40;;
20743;SDS011;56303;52.160;-0.428;2022-07-04T12:33:26;3.73;;;1.50;;
20743;SDS011;56303;52.160;-0.428;2022-07-04T12:36:13;2.03;;;1.50;;
20743;SDS011;56303;52.160;-0.428;2022-07-04T12:38:39;3.37;;;1.60;;
20743;SDS011;56303;52.160;-0.428;2022-07-04T12:41:08;5.33;;;1.70;;
20743;SDS011;56303;52.160;-0.428;2022-07-04T12:46:09;1.83;;;1.70;;
20743;SDS011;56303;52.160;-0.428;2022-07-04T12:48:37;2.23;;;1.50;;
20743;SDS011;56303;52.160;-0.428;2022-07-04T12:51:09;1.53;;;1.10;;
20743;SDS011;56303;52.160;-0.428;2022-07-04T12:53:37;1.93;;;1.57;;
20743;SDS011;56303;52.160;-0.428;2022-07-04T12:56:09;1.20;;;1.10;;
20743;SDS011;56303;52.160;-0.428;2022-07-04T12:58:52;1.90;;;1.50;;
20743;SDS011;56303;52.160;-0.428;2022-07-04T13:01:19;1.93;;;1.40;;
20743;SDS011;56303;52.160;-0.428;2022-07-04T13:03:47;2.67;;;1.50;;
20743;SDS011;56303;52.160;-0.428;2022-07-04T13:06:14;4.13;;;1.60;;
20743;SDS011;56303;52.160;-0.428;2022-07-04T13:08:41;3.30;;;1.67;;
20743;SDS011;56303;52.160;-0.428;2022-07-04T13:11:08;2.83;;;1.50;;
20743;SDS011;56303;52.160;-0.428;2022-07-04T13:13:53;3.10;;;1.70;;
20743;SDS011;56303;52.160;-0.428;2022-07-04T13:16:20;2.27;;;1.50;;
20743;SDS011;56303;52.160;-0.428;2022-07-04T13:18:47;2.67;;;1.40;;
20743;SDS011;56303;52.160;-0.428;2022-07-04T13:21:15;5.03;;;1.73;;
20743;SDS011;56303;52.160;-0.428;2022-07-04T13:23:42;2.63;;;1.43;;
20743;SDS011;56303;52.160;-0.428;2022-07-04T13:26:09;2.30;;;1.30;;
20743;SDS011;56303;52.160;-0.428;2022-07-04T13:28:36;1.67;;;1.40;;
20743;SDS011;56303;52.160;-0.428;2022-07-04T13:31:03;6.53;;;1.37;;
20743;SDS011;56303;52.160;-0.428;2022-07-04T13:33:30;3.10;;;1.33;;
20743;SDS011;56303;52.160;-0.428;2022-07-04T13:35:58;1.83;;;1.17;;
20743;SDS011;56303;52.160;-0.428;2022-07-04T13:38:25;2.97;;;1.30;;
20743;SDS011;56303;52.160;-0.428;2022-07-04T13:40:52;2.80;;;1.40;;
20743;SDS011;56303;52.160;-0.428;2022-07-04T13:43:19;2.23;;;1.60;;
20743;SDS011;56303;52.160;-0.428;2022-07-04T13:45:46;2.23;;;1.50;;
20743;SDS011;56303;52.160;-0.428;2022-07-04T13:48:15;1.60;;;1.40;;
20743;SDS011;56303;52.160;-0.428;2022-07-04T13:50:42;3.43;;;1.40;;
20743;SDS011;56303;52.160;-0.428;2022-07-04T13:53:09;1.60;;;1.40;;
20743;SDS011;56303;52.160;-0.428;2022-07-04T13:55:36;2.17;;;1.50;;
20743;SDS011;56303;52.160;-0.428;2022-07-04T13:58:05;2.20;;;1.30;;
20743;SDS011;56303;52.160;-0.428;2022-07-04T14:00:34;2.73;;;1.50;;
20743;SDS011;56303;52.160;-0.428;2022-07-04T14:03:02;3.90;;;1.27;;
20743;SDS011;56303;52.160;-0.428;2022-07-04T14:05:30;2.60;;;1.40;;
20743;SDS011;56303;52.160;-0.428;2022-07-04T14:07:57;2.00;;;1.40;;
20743;SDS011;56303;52.160;-0.428;2022-07-04T14:10:25;2.73;;;1.37;;
20743;SDS011;56303;52.160;-0.428;2022-07-04T14:12:52;2.93;;;1.80;;
20743;SDS011;56303;52.160;-0.428;2022-07-04T14:15:18;2.57;;;1.43;;
20743;SDS011;56303;52.160;-0.428;2022-07-04T14:17:45;3.87;;;1.47;;
20743;SDS011;56303;52.160;-0.428;2022-07-04T14:20:12;3.07;;;1.53;;
20743;SDS011;56303;52.160;-0.428;2022-07-04T14:22:39;3.23;;;1.50;;
20743;SDS011;56303;52.160;-0.428;2022-07-04T14:25:07;2.80;;;1.60;;
20743;SDS011;56303;52.160;-0.428;2022-07-04T14:27:34;2.53;;;1.70;;
20743;SDS011;56303;52.160;-0.428;2022-07-04T14:30:04;3.30;;;1.60;;
20743;SDS011;56303;52.160;-0.428;2022-07-04T14:32:32;4.23;;;1.73;;
20743;SDS011;56303;52.160;-0.428;2022-07-04T14:34:59;2.63;;;1.33;;
20743;SDS011;56303;52.160;-0.428;2022-07-04T14:37:26;3.23;;;1.43;;
20743;SDS011;56303;52.160;-0.428;2022-07-04T14:39:54;1.70;;;1.17;;
20743;SDS011;56303;52.160;-0.428;2022-07-04T14:42:21;4.83;;;1.23;;
20743;SDS011;56303;52.160;-0.428;2022-07-04T14:44:48;1.60;;;1.50;;
20743;SDS011;56303;52.160;-0.428;2022-07-04T14:47:15;1.67;;;1.23;;
20743;SDS011;56303;52.160;-0.428;2022-07-04T14:49:42;2.23;;;1.23;;
20743;SDS011;56303;52.160;-0.428;2022-07-04T14:52:08;2.63;;;1.57;;
20743;SDS011;56303;52.160;-0.428;2022-07-04T14:54:35;3.70;;;1.67;;
20743;SDS011;56303;52.160;-0.428;2022-07-04T14:57:02;2.10;;;1.03;;
20743;SDS011;56303;52.160;-0.428;2022-07-04T14:59:29;2.90;;;1.63;;
20743;SDS011;56303;52.160;-0.428;2022-07-04T15:01:57;1.60;;;1.47;;
20743;SDS011;56303;52.160;-0.428;2022-07-04T15:04:24;1.63;;;1.50;;
20743;SDS011;56303;52.160;-0.428;2022-07-04T15:06:51;2.33;;;1.50;;
20743;SDS011;56303;52.160;-0.428;2022-07-04T15:09:18;1.50;;;1.40;;
20743;SDS011;56303;52.160;-0.428;2022-07-04T15:11:45;1.93;;;1.50;;
20743;SDS011;56303;52.160;-0.428;2022-07-04T15:14:13;1.67;;;1.50;;
20743;SDS011;56303;52.160;-0.428;2022-07-04T15:16:40;2.00;;;1.60;;